createdAt,value
2019-02-25T00:00:50.569Z,0
2019-02-25T00:01:50.558Z,0
2019-02-25T00:02:50.523Z,0
2019-02-25T00:03:50.259Z,0
2019-02-25T00:04:50.492Z,0
2019-02-25T00:05:50.470Z,0
2019-02-25T00:06:50.204Z,0
2019-02-25T00:07:50.436Z,0
2019-02-25T00:08:50.411Z,0
2019-02-25T00:09:50.404Z,0
2019-02-25T00:10:50.378Z,0
2019-02-25T00:11:50.350Z,0
2019-02-25T00:12:50.340Z,0
2019-02-25T00:13:50.317Z,0
2019-02-25T00:14:50.313Z,0
2019-02-25T00:15:50.283Z,0
2019-02-25T00:16:50.021Z,0
2019-02-25T00:17:50.246Z,0
2019-02-25T00:18:50.236Z,0
2019-02-25T00:19:49.717Z,0
2019-02-25T00:20:50.191Z,0
2019-02-25T00:21:50.163Z,0
2019-02-25T00:22:50.154Z,0
2019-02-25T00:23:50.145Z,0
2019-02-25T00:24:50.111Z,0
2019-02-25T00:25:49.841Z,0
2019-02-25T00:26:49.625Z,0
2019-02-25T00:27:50.114Z,0
2019-02-25T00:28:50.030Z,0
2019-02-25T00:29:50.022Z,0
2019-02-25T00:30:49.997Z,0
2019-02-25T00:31:49.732Z,0
2019-02-25T00:32:49.955Z,0
2019-02-25T00:33:49.934Z,0
2019-02-25T00:34:49.920Z,0
2019-02-25T00:35:49.896Z,0
2019-02-25T00:36:49.628Z,0
2019-02-25T00:37:49.864Z,0
2019-02-25T00:38:49.840Z,0
2019-02-25T00:39:49.824Z,0
2019-02-25T00:40:49.815Z,0
2019-02-25T00:41:49.789Z,0
2019-02-25T00:42:49.764Z,0
2019-02-25T00:43:49.804Z,0
2019-02-25T00:44:49.478Z,0
2019-02-25T00:45:49.716Z,0
2019-02-25T00:46:49.704Z,0
2019-02-25T00:47:49.662Z,0
2019-02-25T00:48:49.712Z,0
2019-02-25T00:49:49.639Z,0
2019-02-25T00:50:49.607Z,0
2019-02-25T00:51:49.593Z,0
2019-02-25T00:52:49.576Z,0
2019-02-25T00:53:49.557Z,0
2019-02-25T00:54:49.547Z,0
2019-02-25T00:55:49.516Z,0
2019-02-25T00:56:49.502Z,0
2019-02-25T00:57:49.240Z,0
2019-02-25T00:58:49.456Z,0
2019-02-25T00:59:49.455Z,0
2019-02-25T01:00:49.426Z,0
2019-02-25T01:01:49.411Z,0
2019-02-25T01:02:49.386Z,0
2019-02-25T01:03:49.363Z,0
2019-02-25T01:04:49.345Z,0
2019-02-25T01:05:49.321Z,0
2019-02-25T01:06:49.322Z,0
2019-02-25T01:07:49.292Z,0
2019-02-25T01:08:49.269Z,0
2019-02-25T01:09:49.000Z,0
2019-02-25T01:10:49.231Z,0
2019-02-25T01:11:49.216Z,0
2019-02-25T01:12:48.952Z,0
2019-02-25T01:13:49.321Z,0
2019-02-25T01:14:49.154Z,0
2019-02-25T01:15:49.133Z,0
2019-02-25T01:16:49.113Z,0
2019-02-25T01:17:49.097Z,0
2019-02-25T01:18:49.078Z,0
2019-02-25T01:19:48.809Z,0
2019-02-25T01:20:49.041Z,0
2019-02-25T01:21:48.779Z,0
2019-02-25T01:22:49.004Z,0
2019-02-25T01:23:51.254Z,0
2019-02-25T01:24:48.960Z,0
2019-02-25T01:25:48.945Z,0
2019-02-25T01:26:48.433Z,0
2019-02-25T01:27:48.656Z,0
2019-02-25T01:28:48.888Z,0
2019-02-25T01:29:48.615Z,0
2019-02-25T01:30:48.851Z,0
2019-02-25T01:31:48.833Z,0
2019-02-25T01:32:48.810Z,0
2019-02-25T01:33:48.543Z,0
2019-02-25T01:34:48.772Z,0
2019-02-25T01:35:48.760Z,0
2019-02-25T01:36:48.489Z,0
2019-02-25T01:37:48.469Z,0
2019-02-25T01:38:48.700Z,0
2019-02-25T01:39:48.434Z,0
2019-02-25T01:40:48.660Z,0
2019-02-25T01:41:48.386Z,0
2019-02-25T01:42:48.442Z,0
2019-02-25T01:43:48.599Z,0
2019-02-25T01:44:48.594Z,0
2019-02-25T01:45:48.572Z,0
2019-02-25T01:46:48.543Z,0
2019-02-25T01:47:48.524Z,0
2019-02-25T01:48:48.502Z,0
2019-02-25T01:49:48.492Z,0
2019-02-25T01:50:48.464Z,0
2019-02-25T01:51:48.201Z,0
2019-02-25T01:52:48.173Z,0
2019-02-25T01:53:48.407Z,0
2019-02-25T01:54:48.397Z,0
2019-02-25T01:55:48.365Z,0
2019-02-25T01:56:48.101Z,0
2019-02-25T01:57:48.331Z,0
2019-02-25T01:58:48.314Z,0
2019-02-25T01:59:48.044Z,0
2019-02-25T02:00:48.286Z,0
2019-02-25T02:01:48.248Z,0
2019-02-25T02:02:48.239Z,0
2019-02-25T02:03:47.971Z,0
2019-02-25T02:04:48.196Z,0
2019-02-25T02:05:48.189Z,0
2019-02-25T02:06:48.159Z,0
2019-02-25T02:07:48.150Z,0
2019-02-25T02:08:48.121Z,0
2019-02-25T02:09:48.254Z,0
2019-02-25T02:10:48.087Z,0
2019-02-25T02:11:48.062Z,0
2019-02-25T02:12:48.065Z,0
2019-02-25T02:13:47.774Z,0
2019-02-25T02:14:48.019Z,0
2019-02-25T02:15:47.992Z,0
2019-02-25T02:16:47.729Z,0
2019-02-25T02:17:47.702Z,0
2019-02-25T02:18:47.925Z,0
2019-02-25T02:19:47.667Z,0
2019-02-25T02:20:47.889Z,0
2019-02-25T02:21:47.878Z,0
2019-02-25T02:22:47.856Z,0
2019-02-25T02:23:47.843Z,0
2019-02-25T02:24:47.816Z,0
2019-02-25T02:25:47.793Z,0
2019-02-25T02:26:47.774Z,0
2019-02-25T02:27:47.802Z,0
2019-02-25T02:28:47.742Z,0
2019-02-25T02:29:47.473Z,0
2019-02-25T02:30:47.710Z,0
2019-02-25T02:31:47.449Z,0
2019-02-25T02:32:47.673Z,0
2019-02-25T02:33:47.709Z,0
2019-02-25T02:34:47.640Z,0
2019-02-25T02:35:47.611Z,0
2019-02-25T02:36:47.338Z,0
2019-02-25T02:37:47.570Z,0
2019-02-25T02:38:47.580Z,0
2019-02-25T02:39:47.540Z,0
2019-02-25T02:40:47.517Z,0
2019-02-25T02:41:47.490Z,0
2019-02-25T02:42:47.486Z,0
2019-02-25T02:43:47.452Z,0
2019-02-25T02:44:47.188Z,0
2019-02-25T02:45:47.427Z,0
2019-02-25T02:46:47.157Z,0
2019-02-25T02:47:47.419Z,0
2019-02-25T02:48:47.109Z,0
2019-02-25T02:49:47.408Z,0
2019-02-25T02:50:47.077Z,0
2019-02-25T02:51:47.312Z,0
2019-02-25T02:52:47.042Z,0
2019-02-25T02:53:47.266Z,0
2019-02-25T02:54:47.264Z,0
2019-02-25T02:55:47.357Z,0
2019-02-25T02:56:47.209Z,0
2019-02-25T02:57:47.195Z,0
2019-02-25T02:58:47.173Z,0
2019-02-25T02:59:46.670Z,0
2019-02-25T03:00:46.886Z,0
2019-02-25T03:01:47.114Z,0
2019-02-25T03:02:47.091Z,0
2019-02-25T03:03:46.825Z,0
2019-02-25T03:04:47.061Z,0
2019-02-25T03:05:47.049Z,0
2019-02-25T03:06:46.773Z,0
2019-02-25T03:07:47.016Z,0
2019-02-25T03:08:46.977Z,0
2019-02-25T03:09:46.973Z,0
2019-02-25T03:10:46.938Z,0
2019-02-25T03:11:46.922Z,0
2019-02-25T03:12:46.912Z,0
2019-02-25T03:13:46.890Z,0
2019-02-25T03:14:46.877Z,0
2019-02-25T03:15:46.850Z,0
2019-02-25T03:16:46.841Z,0
2019-02-25T03:17:46.559Z,0
2019-02-25T03:18:46.792Z,0
2019-02-25T03:19:46.773Z,0
2019-02-25T03:20:46.757Z,0
2019-02-25T03:21:46.734Z,0
2019-02-25T03:22:46.458Z,0
2019-02-25T03:23:46.454Z,0
2019-02-25T03:24:46.679Z,0
2019-02-25T03:25:46.653Z,0
2019-02-25T03:26:46.646Z,0
2019-02-25T03:27:46.617Z,0
2019-02-25T03:28:46.367Z,0
2019-02-25T03:29:46.086Z,0
2019-02-25T03:30:46.588Z,0
2019-02-25T03:31:46.333Z,0
2019-02-25T03:32:46.625Z,0
2019-02-25T03:33:46.535Z,0
2019-02-25T03:34:46.496Z,0
2019-02-25T03:35:46.473Z,0
2019-02-25T03:36:46.451Z,0
2019-02-25T03:37:46.443Z,0
2019-02-25T03:38:46.435Z,0
2019-02-25T03:39:46.399Z,0
2019-02-25T03:40:46.131Z,0
2019-02-25T03:41:46.352Z,0
2019-02-25T03:42:46.333Z,0
2019-02-25T03:43:46.334Z,0
2019-02-25T03:44:46.298Z,0
2019-02-25T03:45:46.328Z,0
2019-02-25T03:46:46.264Z,0
2019-02-25T03:47:46.000Z,0
2019-02-25T03:48:46.220Z,0
2019-02-25T03:49:46.201Z,0
2019-02-25T03:50:46.326Z,0
2019-02-25T03:51:46.165Z,0
2019-02-25T03:52:45.963Z,0
2019-02-25T03:53:45.885Z,0
2019-02-25T03:54:45.864Z,0
2019-02-25T03:55:46.086Z,0
2019-02-25T03:56:46.064Z,0
2019-02-25T03:57:45.822Z,0
2019-02-25T03:58:46.042Z,0
2019-02-25T03:59:46.008Z,0
2019-02-25T04:00:45.991Z,0
2019-02-25T04:01:46.001Z,0
2019-02-25T04:02:45.968Z,0
2019-02-25T04:03:45.928Z,0
2019-02-25T04:04:45.997Z,0
2019-02-25T04:05:45.903Z,0
2019-02-25T04:06:45.892Z,0
2019-02-25T04:07:45.864Z,0
2019-02-25T04:08:45.845Z,0
2019-02-25T04:09:45.834Z,0
2019-02-25T04:10:45.813Z,0
2019-02-25T04:11:45.535Z,0
2019-02-25T04:12:45.779Z,0
2019-02-25T04:13:45.736Z,0
2019-02-25T04:14:45.735Z,0
2019-02-25T04:15:45.704Z,0
2019-02-25T04:16:45.452Z,0
2019-02-25T04:17:45.682Z,0
2019-02-25T04:18:45.650Z,0
2019-02-25T04:19:45.640Z,0
2019-02-25T04:20:45.605Z,0
2019-02-25T04:21:45.597Z,0
2019-02-25T04:22:45.609Z,0
2019-02-25T04:23:45.555Z,0
2019-02-25T04:24:45.278Z,0
2019-02-25T04:25:45.517Z,0
2019-02-25T04:26:45.501Z,0
2019-02-25T04:27:45.498Z,0
2019-02-25T04:28:45.209Z,0
2019-02-25T04:29:45.447Z,0
2019-02-25T04:30:45.186Z,0
2019-02-25T04:31:45.417Z,0
2019-02-25T04:32:45.398Z,0
2019-02-25T04:33:45.364Z,0
2019-02-25T04:34:45.345Z,0
2019-02-25T04:35:45.355Z,0
2019-02-25T04:36:45.315Z,0
2019-02-25T04:37:45.105Z,0
2019-02-25T04:38:45.271Z,0
2019-02-25T04:39:45.298Z,0
2019-02-25T04:40:44.977Z,0
2019-02-25T04:41:45.209Z,0
2019-02-25T04:42:45.000Z,0
2019-02-25T04:43:45.163Z,0
2019-02-25T04:44:44.918Z,0
2019-02-25T04:45:45.181Z,0
2019-02-25T04:46:45.178Z,0
2019-02-25T04:47:45.113Z,0
2019-02-25T04:48:45.077Z,0
2019-02-25T04:49:45.069Z,0
2019-02-25T04:50:45.048Z,0
2019-02-25T04:51:45.034Z,0
2019-02-25T04:52:45.012Z,0
2019-02-25T04:53:44.987Z,0
2019-02-25T04:54:44.958Z,0
2019-02-25T04:55:44.938Z,0
2019-02-25T04:56:44.924Z,0
2019-02-25T04:57:44.689Z,0
2019-02-25T04:58:44.881Z,0
2019-02-25T04:59:44.867Z,0
2019-02-25T05:00:44.601Z,0
2019-02-25T05:01:44.827Z,0
2019-02-25T05:02:44.565Z,0
2019-02-25T05:03:44.794Z,0
2019-02-25T05:04:44.767Z,0
2019-02-25T05:05:44.849Z,0
2019-02-25T05:06:44.723Z,0
2019-02-25T05:07:44.725Z,0
2019-02-25T05:08:44.701Z,0
2019-02-25T05:09:44.471Z,0
2019-02-25T05:10:44.405Z,0
2019-02-25T05:11:44.635Z,0
2019-02-25T05:12:44.377Z,0
2019-02-25T05:13:44.105Z,0
2019-02-25T05:14:44.575Z,0
2019-02-25T05:15:44.563Z,0
2019-02-25T05:16:44.895Z,0
2019-02-25T05:17:44.523Z,0
2019-02-25T05:18:44.005Z,0
2019-02-25T05:19:44.527Z,0
2019-02-25T05:20:44.459Z,0
2019-02-25T05:21:44.448Z,0
2019-02-25T05:22:44.873Z,0
2019-02-25T05:23:44.411Z,0
2019-02-25T05:24:44.390Z,0
2019-02-25T05:25:44.361Z,0
2019-02-25T05:26:44.349Z,0
2019-02-25T05:27:44.335Z,0
2019-02-25T05:28:44.324Z,0
2019-02-25T05:29:44.303Z,0
2019-02-25T05:30:44.270Z,0
2019-02-25T05:31:44.254Z,0
2019-02-25T05:32:44.257Z,0
2019-02-25T05:33:44.210Z,0
2019-02-25T05:34:44.193Z,0
2019-02-25T05:35:44.186Z,4
2019-02-25T05:36:44.157Z,4
2019-02-25T05:37:43.894Z,0
2019-02-25T05:38:43.626Z,4
2019-02-25T05:39:44.093Z,4
2019-02-25T05:40:44.093Z,4
2019-02-25T05:41:44.076Z,4
2019-02-25T05:42:44.046Z,8
2019-02-25T05:43:44.025Z,12
2019-02-25T05:44:43.765Z,8
2019-02-25T05:45:43.986Z,12
2019-02-25T05:46:43.968Z,16
2019-02-25T05:47:43.953Z,20
2019-02-25T05:48:43.691Z,20
2019-02-25T05:49:43.913Z,28
2019-02-25T05:50:43.637Z,32
2019-02-25T05:51:43.870Z,36
2019-02-25T05:52:43.843Z,44
2019-02-25T05:53:43.840Z,48
2019-02-25T05:54:43.845Z,60
2019-02-25T05:55:43.810Z,68
2019-02-25T05:56:46.124Z,80
2019-02-25T05:57:43.761Z,88
2019-02-25T05:58:43.748Z,100
2019-02-25T05:59:43.471Z,108
2019-02-25T06:00:43.696Z,120
2019-02-25T06:01:43.712Z,132
2019-02-25T06:02:43.658Z,148
2019-02-25T06:03:43.637Z,160
2019-02-25T06:04:43.634Z,172
2019-02-25T06:05:43.604Z,188
2019-02-25T06:06:43.339Z,204
2019-02-25T06:07:43.315Z,224
2019-02-25T06:08:43.543Z,240
2019-02-25T06:09:43.524Z,264
2019-02-25T06:10:43.505Z,288
2019-02-25T06:11:43.493Z,312
2019-02-25T06:12:43.471Z,336
2019-02-25T06:13:43.195Z,360
2019-02-25T06:14:43.188Z,388
2019-02-25T06:15:43.414Z,416
2019-02-25T06:16:43.393Z,440
2019-02-25T06:17:43.378Z,468
2019-02-25T06:18:43.351Z,496
2019-02-25T06:19:43.339Z,524
2019-02-25T06:20:43.317Z,548
2019-02-25T06:21:43.052Z,576
2019-02-25T06:22:43.329Z,608
2019-02-25T06:23:43.251Z,636
2019-02-25T06:24:42.746Z,664
2019-02-25T06:25:43.218Z,696
2019-02-25T06:26:43.603Z,728
2019-02-25T06:27:42.926Z,760
2019-02-25T06:28:43.167Z,792
2019-02-25T06:29:43.139Z,824
2019-02-25T06:30:43.125Z,860
2019-02-25T06:31:42.864Z,900
2019-02-25T06:32:43.079Z,936
2019-02-25T06:33:43.072Z,976
2019-02-25T06:34:43.045Z,1016
2019-02-25T06:35:43.036Z,1064
2019-02-25T06:36:43.022Z,1112
2019-02-25T06:37:42.795Z,1156
2019-02-25T06:38:42.982Z,1204
2019-02-25T06:39:42.980Z,1248
2019-02-25T06:40:42.936Z,1280
2019-02-25T06:41:42.665Z,1296
2019-02-25T06:42:42.890Z,1320
2019-02-25T06:43:42.876Z,1356
2019-02-25T06:44:42.861Z,1388
2019-02-25T06:45:42.097Z,1412
2019-02-25T06:46:42.822Z,1432
2019-02-25T06:47:42.808Z,1456
2019-02-25T06:48:42.933Z,1464
2019-02-25T06:49:42.759Z,1480
2019-02-25T06:50:42.499Z,1488
2019-02-25T06:51:42.735Z,1520
2019-02-25T06:52:42.214Z,1528
2019-02-25T06:53:42.689Z,1536
2019-02-25T06:54:42.427Z,1548
2019-02-25T06:55:42.655Z,1560
2019-02-25T06:56:42.628Z,1572
2019-02-25T06:57:42.612Z,1588
2019-02-25T06:58:42.599Z,1604
2019-02-25T06:59:42.585Z,1628
2019-02-25T07:00:42.564Z,1652
2019-02-25T07:01:42.537Z,1676
2019-02-25T07:02:42.519Z,1700
2019-02-25T07:03:43.636Z,1728
2019-02-25T07:04:42.484Z,1760
2019-02-25T07:05:42.475Z,1792
2019-02-25T07:06:42.447Z,1820
2019-02-25T07:07:42.427Z,1844
2019-02-25T07:08:42.410Z,1864
2019-02-25T07:09:43.728Z,1884
2019-02-25T07:10:42.385Z,1904
2019-02-25T07:11:42.355Z,1924
2019-02-25T07:12:42.333Z,1940
2019-02-25T07:13:42.329Z,1948
2019-02-25T07:14:42.332Z,1940
2019-02-25T07:15:42.283Z,1960
2019-02-25T07:16:42.264Z,1976
2019-02-25T07:17:42.256Z,1984
2019-02-25T07:18:42.227Z,1984
2019-02-25T07:19:42.218Z,1980
2019-02-25T07:20:42.796Z,1980
2019-02-25T07:21:42.224Z,1988
2019-02-25T07:22:42.151Z,1992
2019-02-25T07:23:42.297Z,2000
2019-02-25T07:24:42.131Z,2000
2019-02-25T07:25:41.851Z,2000
2019-02-25T07:26:42.077Z,2004
2019-02-25T07:27:42.061Z,2004
2019-02-25T07:28:43.834Z,2012
2019-02-25T07:29:42.026Z,2032
2019-02-25T07:30:41.760Z,2060
2019-02-25T07:31:41.999Z,2088
2019-02-25T07:32:41.974Z,2104
2019-02-25T07:33:41.711Z,2132
2019-02-25T07:34:41.720Z,2156
2019-02-25T07:35:41.922Z,2172
2019-02-25T07:36:41.910Z,2200
2019-02-25T07:37:41.885Z,2220
2019-02-25T07:38:46.898Z,2252
2019-02-25T07:39:41.601Z,2272
2019-02-25T07:40:41.835Z,2300
2019-02-25T07:41:42.797Z,2324
2019-02-25T07:42:41.549Z,2344
2019-02-25T07:43:41.781Z,2372
2019-02-25T07:44:41.758Z,2396
2019-02-25T07:45:41.746Z,2420
2019-02-25T07:46:41.481Z,2448
2019-02-25T07:47:41.711Z,2472
2019-02-25T07:48:42.344Z,2500
2019-02-25T07:49:41.673Z,2524
2019-02-25T07:50:49.502Z,2548
2019-02-25T07:51:41.639Z,2564
2019-02-25T07:52:41.625Z,2576
2019-02-25T07:53:41.350Z,2588
2019-02-25T07:54:41.591Z,2608
2019-02-25T07:55:41.326Z,2620
2019-02-25T07:56:41.554Z,2628
2019-02-25T07:57:41.300Z,2640
2019-02-25T07:58:41.559Z,2656
2019-02-25T07:59:41.504Z,2684
2019-02-25T08:00:41.237Z,2712
2019-02-25T08:01:41.216Z,2736
2019-02-25T08:02:41.456Z,2752
2019-02-25T08:03:40.942Z,2776
2019-02-25T08:04:41.416Z,2808
2019-02-25T08:05:41.398Z,2820
2019-02-25T08:06:41.378Z,2828
2019-02-25T08:07:41.374Z,2832
2019-02-25T08:08:41.349Z,2852
2019-02-25T08:09:41.328Z,2884
2019-02-25T08:10:41.317Z,2920
2019-02-25T08:11:41.299Z,2944
2019-02-25T08:12:41.285Z,2964
2019-02-25T08:13:41.265Z,2976
2019-02-25T08:14:41.257Z,2992
2019-02-25T08:15:41.235Z,3020
2019-02-25T08:16:41.210Z,3044
2019-02-25T08:17:40.947Z,3048
2019-02-25T08:18:41.186Z,3032
2019-02-25T08:19:40.912Z,3016
2019-02-25T08:20:42.159Z,2992
2019-02-25T08:21:41.131Z,2956
2019-02-25T08:22:41.114Z,2916
2019-02-25T08:23:41.099Z,2892
2019-02-25T08:24:41.089Z,2884
2019-02-25T08:25:41.070Z,2888
2019-02-25T08:26:41.069Z,2884
2019-02-25T08:27:41.038Z,2892
2019-02-25T08:28:40.772Z,2908
2019-02-25T08:29:40.812Z,2924
2019-02-25T08:30:40.986Z,2936
2019-02-25T08:31:40.972Z,2944
2019-02-25T08:32:40.462Z,2956
2019-02-25T08:33:40.946Z,2940
2019-02-25T08:34:40.978Z,2932
2019-02-25T08:35:40.914Z,2932
2019-02-25T08:36:42.363Z,2924
2019-02-25T08:37:40.873Z,2916
2019-02-25T08:38:40.387Z,2892
2019-02-25T08:39:40.852Z,2856
2019-02-25T08:40:40.833Z,2832
2019-02-25T08:41:40.811Z,2820
2019-02-25T08:42:40.551Z,2824
2019-02-25T08:43:40.784Z,2832
2019-02-25T08:44:40.766Z,2844
2019-02-25T08:45:40.506Z,2864
2019-02-25T08:46:40.739Z,2888
2019-02-25T08:47:40.744Z,2876
2019-02-25T08:48:40.755Z,2900
2019-02-25T08:49:40.694Z,2936
2019-02-25T08:50:40.681Z,2980
2019-02-25T08:51:40.664Z,3028
2019-02-25T08:52:40.649Z,3044
2019-02-25T08:53:40.652Z,3044
2019-02-25T08:54:40.372Z,3044
2019-02-25T08:55:40.364Z,3036
2019-02-25T08:56:40.601Z,3060
2019-02-25T08:57:40.577Z,3044
2019-02-25T08:58:42.611Z,3076
2019-02-25T08:59:40.546Z,3084
2019-02-25T09:00:40.534Z,3096
2019-02-25T09:01:40.521Z,3124
2019-02-25T09:02:40.499Z,3136
2019-02-25T09:03:40.236Z,3124
2019-02-25T09:04:40.467Z,3116
2019-02-25T09:05:40.213Z,3112
2019-02-25T09:06:40.447Z,3124
2019-02-25T09:07:42.507Z,3108
2019-02-25T09:08:40.427Z,3092
2019-02-25T09:09:40.411Z,3084
2019-02-25T09:10:40.142Z,3036
2019-02-25T09:11:40.126Z,3000
2019-02-25T09:12:40.362Z,2964
2019-02-25T09:13:40.343Z,2952
2019-02-25T09:14:40.330Z,2960
2019-02-25T09:15:40.074Z,2948
2019-02-25T09:16:40.302Z,2940
2019-02-25T09:17:40.289Z,2944
2019-02-25T09:18:40.027Z,2944
2019-02-25T09:19:40.260Z,2936
2019-02-25T09:20:40.039Z,2920
2019-02-25T09:21:40.241Z,2924
2019-02-25T09:22:40.218Z,2920
2019-02-25T09:23:40.206Z,2912
2019-02-25T09:24:40.880Z,2924
2019-02-25T09:25:40.189Z,2912
2019-02-25T09:26:40.160Z,2896
2019-02-25T09:27:40.150Z,2892
2019-02-25T09:28:40.130Z,2884
2019-02-25T09:29:39.870Z,2864
2019-02-25T09:30:40.110Z,2848
2019-02-25T09:31:40.127Z,2812
2019-02-25T09:32:39.831Z,2796
2019-02-25T09:33:40.068Z,2780
2019-02-25T09:34:40.065Z,2744
2019-02-25T09:35:40.048Z,2684
2019-02-25T09:36:40.031Z,2696
2019-02-25T09:37:41.829Z,2692
2019-02-25T09:38:40.008Z,2684
2019-02-25T09:39:39.743Z,2680
2019-02-25T09:40:39.725Z,2708
2019-02-25T09:41:39.969Z,2684
2019-02-25T09:42:39.954Z,2664
2019-02-25T09:43:39.943Z,2640
2019-02-25T09:44:40.471Z,2648
2019-02-25T09:45:39.913Z,2684
2019-02-25T09:46:39.903Z,2696
2019-02-25T09:47:39.642Z,2704
2019-02-25T09:48:39.870Z,2716
2019-02-25T09:49:39.617Z,2724
2019-02-25T09:50:39.854Z,2728
2019-02-25T09:51:39.833Z,2736
2019-02-25T09:52:39.823Z,2720
2019-02-25T09:53:39.812Z,2740
2019-02-25T09:54:39.819Z,2756
2019-02-25T09:55:39.784Z,2764
2019-02-25T09:56:39.860Z,2768
2019-02-25T09:57:39.768Z,2768
2019-02-25T09:58:39.759Z,2768
2019-02-25T09:59:39.739Z,2744
2019-02-25T10:00:39.482Z,2712
2019-02-25T10:01:39.460Z,2680
2019-02-25T10:02:39.705Z,2644
2019-02-25T10:03:39.696Z,2640
2019-02-25T10:04:39.681Z,2620
2019-02-25T10:05:39.664Z,2628
2019-02-25T10:06:39.421Z,2608
2019-02-25T10:07:39.634Z,2640
2019-02-25T10:08:39.636Z,2656
2019-02-25T10:09:39.683Z,2660
2019-02-25T10:10:39.350Z,2644
2019-02-25T10:11:39.587Z,2624
2019-02-25T10:12:39.574Z,2568
2019-02-25T10:13:39.560Z,2556
2019-02-25T10:14:39.559Z,2568
2019-02-25T10:15:39.545Z,2560
2019-02-25T10:16:39.282Z,2572
2019-02-25T10:17:39.515Z,2588
2019-02-25T10:18:39.512Z,2584
2019-02-25T10:19:39.426Z,2560
2019-02-25T10:20:39.520Z,2544
2019-02-25T10:21:39.471Z,2540
2019-02-25T10:22:39.996Z,2532
2019-02-25T10:23:40.469Z,2536
2019-02-25T10:24:39.939Z,2488
2019-02-25T10:25:39.423Z,2456
2019-02-25T10:26:39.416Z,2436
2019-02-25T10:27:39.157Z,2452
2019-02-25T10:28:39.389Z,2452
2019-02-25T10:29:39.379Z,2448
2019-02-25T10:30:39.366Z,2444
2019-02-25T10:31:43.638Z,2436
2019-02-25T10:32:39.340Z,2412
2019-02-25T10:33:39.101Z,2396
2019-02-25T10:34:39.322Z,2392
2019-02-25T10:35:39.318Z,2344
2019-02-25T10:36:39.295Z,2288
2019-02-25T10:37:43.872Z,2360
2019-02-25T10:38:40.044Z,2336
2019-02-25T10:39:41.127Z,2356
2019-02-25T10:40:39.251Z,2348
2019-02-25T10:41:38.991Z,2344
2019-02-25T10:42:42.583Z,2344
2019-02-25T10:43:41.487Z,2376
2019-02-25T10:44:42.930Z,2384
2019-02-25T10:45:43.684Z,2388
2019-02-25T10:46:42.802Z,2356
2019-02-25T10:47:38.673Z,2368
2019-02-25T10:48:39.165Z,2408
2019-02-25T10:49:40.895Z,2416
2019-02-25T10:50:43.837Z,2408
2019-02-25T10:51:45.158Z,2408
2019-02-25T10:52:42.826Z,2404
2019-02-25T10:53:38.860Z,2376
2019-02-25T10:54:39.093Z,2384
2019-02-25T10:55:39.995Z,2368
2019-02-25T10:56:39.068Z,2372
2019-02-25T10:57:39.097Z,2348
2019-02-25T10:58:42.572Z,2324
2019-02-25T10:59:43.953Z,2312
2019-02-25T11:00:44.388Z,2312
2019-02-25T11:01:41.693Z,2304
2019-02-25T11:02:47.350Z,2308
2019-02-25T11:03:38.999Z,2316
2019-02-25T11:04:38.989Z,2324
2019-02-25T11:05:38.987Z,2336
2019-02-25T11:06:42.711Z,2344
2019-02-25T11:07:44.467Z,2356
2019-02-25T11:08:43.578Z,2368
2019-02-25T11:09:40.218Z,2376
2019-02-25T11:10:38.923Z,2384
2019-02-25T11:11:38.908Z,2388
2019-02-25T11:12:40.487Z,2392
2019-02-25T11:13:41.276Z,2388
2019-02-25T11:14:45.836Z,2432
2019-02-25T11:15:42.214Z,2460
2019-02-25T11:16:38.850Z,2480
2019-02-25T11:17:38.846Z,2488
2019-02-25T11:18:40.424Z,2484
2019-02-25T11:19:40.131Z,2480
2019-02-25T11:20:42.531Z,2496
2019-02-25T11:21:44.472Z,2508
2019-02-25T11:22:43.630Z,2516
2019-02-25T11:23:38.533Z,2528
2019-02-25T11:24:38.772Z,2528
2019-02-25T11:25:38.512Z,2520
2019-02-25T11:26:41.707Z,2500
2019-02-25T11:27:44.392Z,2476
2019-02-25T11:28:45.912Z,2436
2019-02-25T11:29:42.442Z,2408
2019-02-25T11:30:38.707Z,2388
2019-02-25T11:31:38.697Z,2368
2019-02-25T11:32:38.691Z,2344
2019-02-25T11:33:41.093Z,2336
2019-02-25T11:34:42.430Z,2316
2019-02-25T11:35:43.151Z,2312
2019-02-25T11:36:38.647Z,2316
2019-02-25T11:37:38.651Z,2272
2019-02-25T11:38:43.914Z,2312
2019-02-25T11:39:42.000Z,2300
2019-02-25T11:40:43.172Z,2300
2019-02-25T11:41:43.549Z,2320
2019-02-25T11:42:38.335Z,2356
2019-02-25T11:43:38.611Z,2384
2019-02-25T11:44:38.565Z,2400
2019-02-25T11:45:38.858Z,2416
2019-02-25T11:46:38.550Z,2440
2019-02-25T11:47:38.295Z,2440
2019-02-25T11:48:38.530Z,2444
2019-02-25T11:49:38.267Z,2456
2019-02-25T11:50:38.263Z,2476
2019-02-25T11:51:38.504Z,2488
2019-02-25T11:52:38.483Z,2496
2019-02-25T11:53:38.475Z,2492
2019-02-25T11:54:38.470Z,2496
2019-02-25T11:55:38.210Z,2500
2019-02-25T11:56:38.204Z,2500
2019-02-25T11:57:38.437Z,2508
2019-02-25T11:58:38.440Z,2516
2019-02-25T11:59:38.451Z,2500
2019-02-25T12:00:39.857Z,2536
2019-02-25T12:01:38.399Z,2548
2019-02-25T12:02:38.148Z,2560
2019-02-25T12:03:38.133Z,2576
2019-02-25T12:04:38.121Z,2600
2019-02-25T12:05:38.357Z,2632
2019-02-25T12:06:38.351Z,2652
2019-02-25T12:07:38.341Z,2664
2019-02-25T12:08:38.331Z,2676
2019-02-25T12:09:38.323Z,2696
2019-02-25T12:10:38.315Z,2708
2019-02-25T12:11:38.303Z,2704
2019-02-25T12:12:38.295Z,2728
2019-02-25T12:13:38.282Z,2760
2019-02-25T12:14:38.275Z,2788
2019-02-25T12:15:38.259Z,2824
2019-02-25T12:16:38.255Z,2840
2019-02-25T12:17:37.994Z,2860
2019-02-25T12:18:38.278Z,2848
2019-02-25T12:19:38.232Z,2836
2019-02-25T12:20:37.970Z,2808
2019-02-25T12:21:38.202Z,2788
2019-02-25T12:22:38.225Z,2772
2019-02-25T12:23:38.188Z,2744
2019-02-25T12:24:38.180Z,2736
2019-02-25T12:25:37.919Z,2748
2019-02-25T12:26:37.920Z,2764
2019-02-25T12:27:38.151Z,2812
2019-02-25T12:28:38.141Z,2872
2019-02-25T12:29:38.414Z,2896
2019-02-25T12:30:38.122Z,2888
2019-02-25T12:31:38.113Z,2836
2019-02-25T12:32:37.857Z,2724
2019-02-25T12:33:38.102Z,2728
2019-02-25T12:34:38.088Z,2720
2019-02-25T12:35:38.080Z,2712
2019-02-25T12:36:38.080Z,2700
2019-02-25T12:37:38.059Z,2692
2019-02-25T12:38:38.054Z,2680
2019-02-25T12:39:38.049Z,2660
2019-02-25T12:40:38.024Z,2672
2019-02-25T12:41:38.023Z,2668
2019-02-25T12:42:37.770Z,2672
2019-02-25T12:43:38.004Z,2616
2019-02-25T12:44:37.987Z,2640
2019-02-25T12:45:37.493Z,2640
2019-02-25T12:46:38.017Z,2708
2019-02-25T12:47:37.962Z,2828
2019-02-25T12:48:37.951Z,2956
2019-02-25T12:49:38.013Z,3092
2019-02-25T12:50:37.931Z,3280
2019-02-25T12:51:37.677Z,3444
2019-02-25T12:52:38.173Z,3528
2019-02-25T12:53:40.222Z,3392
2019-02-25T12:54:37.900Z,3336
2019-02-25T12:55:37.901Z,3116
2019-02-25T12:56:37.882Z,2960
2019-02-25T12:57:37.676Z,2848
2019-02-25T12:58:37.884Z,2804
2019-02-25T12:59:37.862Z,2784
2019-02-25T13:00:37.849Z,2824
2019-02-25T13:01:37.847Z,2848
2019-02-25T13:02:37.828Z,2840
2019-02-25T13:03:37.322Z,2864
2019-02-25T13:04:37.570Z,2892
2019-02-25T13:05:37.799Z,2924
2019-02-25T13:06:37.802Z,2872
2019-02-25T13:07:37.785Z,2964
2019-02-25T13:08:37.795Z,3044
2019-02-25T13:09:37.540Z,3180
2019-02-25T13:10:37.265Z,3212
2019-02-25T13:11:39.840Z,3112
2019-02-25T13:12:37.738Z,3044
2019-02-25T13:13:37.736Z,3012
2019-02-25T13:14:37.727Z,2992
2019-02-25T13:15:37.466Z,2988
2019-02-25T13:16:37.459Z,2988
2019-02-25T13:17:37.696Z,2980
2019-02-25T13:18:37.695Z,3040
2019-02-25T13:19:37.680Z,3116
2019-02-25T13:20:37.669Z,3116
2019-02-25T13:21:37.659Z,3272
2019-02-25T13:22:37.647Z,3412
2019-02-25T13:23:37.390Z,3532
2019-02-25T13:24:41.997Z,3632
2019-02-25T13:25:37.376Z,3708
2019-02-25T13:26:42.227Z,3732
2019-02-25T13:27:37.655Z,3604
2019-02-25T13:28:40.010Z,3436
2019-02-25T13:29:37.380Z,3372
2019-02-25T13:30:37.629Z,3344
2019-02-25T13:31:37.357Z,3324
2019-02-25T13:32:37.582Z,3356
2019-02-25T13:33:37.681Z,3424
2019-02-25T13:34:37.888Z,3508
2019-02-25T13:35:37.567Z,3604
2019-02-25T13:36:37.550Z,3700
2019-02-25T13:37:37.691Z,3736
2019-02-25T13:38:37.610Z,3680
2019-02-25T13:39:37.306Z,3508
2019-02-25T13:40:37.352Z,3316
2019-02-25T13:41:37.969Z,3208
2019-02-25T13:42:37.531Z,3032
2019-02-25T13:43:37.547Z,2888
2019-02-25T13:44:37.546Z,2760
2019-02-25T13:45:37.540Z,2668
2019-02-25T13:46:37.514Z,2584
2019-02-25T13:47:37.512Z,2524
2019-02-25T13:48:37.908Z,2528
2019-02-25T13:49:37.497Z,2540
2019-02-25T13:50:37.485Z,2476
2019-02-25T13:51:37.474Z,2464
2019-02-25T13:52:47.240Z,2424
2019-02-25T13:53:37.513Z,2420
2019-02-25T13:54:37.204Z,2380
2019-02-25T13:55:37.882Z,2360